TimeEST,TemperatureF,Dew PointF,Humidity,Sea Level PressureIn,VisibilityMPH,Wind Direction,Wind SpeedMPH,Gust SpeedMPH,PrecipitationIn,Events,Conditions,WindDirDegrees,DateUTC
12:53 AM,39.0,25.0,57,30.25,10.0,West,9.2,-,N/A,,Clear,260,2012-11-30 05:53:00
1:53 AM,39.9,25.0,55,30.27,10.0,WSW,9.2,-,N/A,,Mostly Cloudy,250,2012-11-30 06:53:00
2:53 AM,37.9,25.0,60,30.27,10.0,West,9.2,-,N/A,,Clear,260,2012-11-30 07:53:00
3:53 AM,36.0,25.0,64,30.28,10.0,West,6.9,-,N/A,,Clear,270,2012-11-30 08:53:00
4:53 AM,35.1,24.1,64,30.32,10.0,North,4.6,-,N/A,,Clear,350,2012-11-30 09:53:00
5:53 AM,32.0,24.1,73,30.34,10.0,Calm,Calm,-,N/A,,Clear,0,2012-11-30 10:53:00
6:53 AM,32.0,25.0,75,30.38,10.0,North,3.5,-,N/A,,Clear,10,2012-11-30 11:53:00
7:53 AM,34.0,25.0,70,30.40,10.0,North,5.8,-,N/A,,Clear,10,2012-11-30 12:53:00
8:53 AM,35.1,25.0,67,30.43,10.0,Variable,6.9,-,N/A,,Clear,0,2012-11-30 13:53:00
9:53 AM,37.0,21.0,52,30.44,10.0,NNE,11.5,-,N/A,,Clear,20,2012-11-30 14:53:00
10:53 AM,37.9,16.0,41,30.45,10.0,North,11.5,18.4,N/A,,Partly Cloudy,10,2012-11-30 15:53:00
11:53 AM,39.2,15.8,39,30.43,10.0,North,8.1,-,N/A,,Clear,10,2012-11-30 16:53:00
12:53 PM,37.9,17.1,43,30.43,10.0,NNE,5.8,-,N/A,,Partly Cloudy,30,2012-11-30 17:53:00
1:53 PM,37.0,21.0,52,30.43,10.0,NNE,6.9,-,N/A,,Clear,30,2012-11-30 18:53:00
2:53 PM,35.1,23.0,61,30.45,10.0,NE,10.4,-,N/A,,Partly Cloudy,40,2012-11-30 19:53:00
3:53 PM,34.0,21.9,61,30.47,10.0,NE,6.9,-,N/A,,Overcast,40,2012-11-30 20:53:00
4:53 PM,32.0,21.0,64,30.49,10.0,NE,6.9,-,N/A,,Overcast,40,2012-11-30 21:53:00
5:53 PM,30.9,21.0,67,30.49,10.0,NNE,3.5,-,N/A,,Scattered Clouds,30,2012-11-30 22:53:00
6:53 PM,32.0,21.0,64,30.52,10.0,North,3.5,-,N/A,,Overcast,10,2012-11-30 23:53:00
7:53 PM,32.0,21.0,64,30.53,10.0,Calm,Calm,-,N/A,,Overcast,0,2012-12-01 00:53:00
8:53 PM,32.0,21.0,64,30.53,10.0,NNE,4.6,-,N/A,,Overcast,30,2012-12-01 01:53:00
9:53 PM,32.0,21.0,64,30.53,10.0,NNE,3.5,-,N/A,,Overcast,20,2012-12-01 02:53:00
10:53 PM,32.0,21.9,66,30.54,10.0,Calm,Calm,-,N/A,,Overcast,0,2012-12-01 03:53:00
11:53 PM,33.8,21.2,60,30.53,10.0,Calm,Calm,-,N/A,,Overcast,0,2012-12-01 04:53:00